Estación Meteorológica Peña el Pijo (Robertgarden) [ 12/10/18 11:15:44 CET ]

Fecha Hora Presion(HPa) Temp (°C) Humedad % Rocio (°C) Viento ( m/s) Direccion Lluvia 1Hora(mm) Lluvia 24H(mm) LLuvia Total(mm)
2018-Jun-25 01:01:37 1010.900 17.9 69 12.2         266.25
2018-Jun-25 02:01:44 1010.900 16.8 71 11.5         266.25
2018-Jun-25 03:10:03 1010.800 15.8 73 11.0         266.25
2018-Jun-25 04:01:48 1010.800 14.5 75 10.2         266.25
2018-Jun-25 05:01:53 1010.500 13.8 78 10.0         266.25
2018-Jun-25 06:01:47 1010.900 13.4 79 9.8         266.25
2018-Jun-25 07:01:39 1010.600 13.1 80 9.7         266.25
2018-Jun-25 08:01:53 1010.800 14.6 82 11.6         266.25
2018-Jun-25 09:01:48 1011.000 19.5 74 14.7         266.25
2018-Jun-25 10:01:42 1010.700 25.7 57 16.5         266.25
2018-Jun-25 11:01:53 1010.600 30.1 43 16.1         266.25
2018-Jun-25 12:01:54 1010.400 32.3 36 15.2         266.25
2018-Jun-25 13:01:54 1010.300 35.6 31 15.8         266.25
2018-Jun-25 14:01:26 1009.900 35.4 30 15.2         266.25
2018-Jun-25 15:01:47 1009.700 36.9 26 14.0         266.25
2018-Jun-25 16:01:38 1009.500 36.4 26 13.6         266.25
2018-Jun-25 17:01:58 1009.700 36.8 24 12.7         266.25
2018-Jun-25 18:01:47 1009.300 31.8 29 11.5         266.25
2018-Jun-25 19:01:41 1009.800 29.4 34 11.8         266.25
2018-Jun-25 20:01:48 1010.200 30.6 35 13.3         266.25
2018-Jun-25 21:01:35 1010.000 27.4 44 14.0         266.25
2018-Jun-25 22:01:46 1010.500 23.4 51 12.7         266.25
2018-Jun-25 23:01:59 1011.500 20.4 60 12.4         266.25

Temperatura Máxima:36°    Temperatura Mínima:13°
Presión Máxima:1011.500 Hpa    Presión Mínima:1009.300 Hpa


Volver